sensor_id;sensor_type;location;lat;lon;timestamp;temperature;humidity
47779;DHT22;33538;48.432;11.350;2023-06-24T00:00:08;20.60;76.50
47779;DHT22;33538;48.432;11.350;2023-06-24T00:02:35;20.60;76.60
47779;DHT22;33538;48.432;11.350;2023-06-24T00:05:04;20.60;76.70
47779;DHT22;33538;48.432;11.350;2023-06-24T00:07:31;20.60;76.70
47779;DHT22;33538;48.432;11.350;2023-06-24T00:09:58;20.60;76.80
47779;DHT22;33538;48.432;11.350;2023-06-24T00:12:25;20.60;77.10
47779;DHT22;33538;48.432;11.350;2023-06-24T00:14:52;20.60;77.10
47779;DHT22;33538;48.432;11.350;2023-06-24T00:17:18;20.60;77.30
47779;DHT22;33538;48.432;11.350;2023-06-24T00:19:45;20.60;77.30
47779;DHT22;33538;48.432;11.350;2023-06-24T00:22:13;20.60;77.40
47779;DHT22;33538;48.432;11.350;2023-06-24T00:24:42;20.50;77.50
47779;DHT22;33538;48.432;11.350;2023-06-24T00:27:08;20.50;77.10
47779;DHT22;33538;48.432;11.350;2023-06-24T00:29:35;20.50;77.40
47779;DHT22;33538;48.432;11.350;2023-06-24T00:32:02;20.50;77.30
47779;DHT22;33538;48.432;11.350;2023-06-24T00:34:29;20.50;77.20
47779;DHT22;33538;48.432;11.350;2023-06-24T00:36:56;20.50;76.90
47779;DHT22;33538;48.432;11.350;2023-06-24T00:39:24;20.50;76.70
47779;DHT22;33538;48.432;11.350;2023-06-24T00:41:51;20.40;76.70
47779;DHT22;33538;48.432;11.350;2023-06-24T00:44:18;20.40;77.00
47779;DHT22;33538;48.432;11.350;2023-06-24T00:46:44;20.40;76.90
47779;DHT22;33538;48.432;11.350;2023-06-24T00:49:11;20.40;76.90
47779;DHT22;33538;48.432;11.350;2023-06-24T00:51:38;20.40;76.90
47779;DHT22;33538;48.432;11.350;2023-06-24T00:54:05;20.40;77.10
47779;DHT22;33538;48.432;11.350;2023-06-24T00:56:34;20.40;77.30
47779;DHT22;33538;48.432;11.350;2023-06-24T00:59:02;20.40;77.40
47779;DHT22;33538;48.432;11.350;2023-06-24T01:01:32;20.40;77.30
47779;DHT22;33538;48.432;11.350;2023-06-24T01:04:00;20.40;77.20
47779;DHT22;33538;48.432;11.350;2023-06-24T01:06:28;20.40;77.40
47779;DHT22;33538;48.432;11.350;2023-06-24T01:08:55;20.40;77.30
47779;DHT22;33538;48.432;11.350;2023-06-24T01:11:22;20.30;77.20
47779;DHT22;33538;48.432;11.350;2023-06-24T01:13:50;20.30;77.60
47779;DHT22;33538;48.432;11.350;2023-06-24T01:16:23;20.30;77.90
47779;DHT22;33538;48.432;11.350;2023-06-24T01:18:57;20.30;78.00
47779;DHT22;33538;48.432;11.350;2023-06-24T01:21:33;20.30;77.90
47779;DHT22;33538;48.432;11.350;2023-06-24T01:24:17;20.30;78.20
47779;DHT22;33538;48.432;11.350;2023-06-24T01:27:06;20.30;78.50
47779;DHT22;33538;48.432;11.350;2023-06-24T01:30:12;20.20;78.30
47779;DHT22;33538;48.432;11.350;2023-06-24T01:32:49;20.20;78.00
47779;DHT22;33538;48.432;11.350;2023-06-24T01:35:21;20.30;78.40
47779;DHT22;33538;48.432;11.350;2023-06-24T01:37:51;20.30;78.50
47779;DHT22;33538;48.432;11.350;2023-06-24T01:40:23;20.20;78.40
47779;DHT22;33538;48.432;11.350;2023-06-24T01:42:52;20.20;78.30
47779;DHT22;33538;48.432;11.350;2023-06-24T01:45:23;20.20;78.40
47779;DHT22;33538;48.432;11.350;2023-06-24T01:47:58;20.20;78.50
47779;DHT22;33538;48.432;11.350;2023-06-24T01:50:26;20.20;78.10
47779;DHT22;33538;48.432;11.350;2023-06-24T01:52:54;20.20;78.30
47779;DHT22;33538;48.432;11.350;2023-06-24T01:55:23;20.20;78.20
47779;DHT22;33538;48.432;11.350;2023-06-24T01:57:51;20.20;78.10
47779;DHT22;33538;48.432;11.350;2023-06-24T02:00:20;20.20;78.10
47779;DHT22;33538;48.432;11.350;2023-06-24T02:02:48;20.20;78.40
47779;DHT22;33538;48.432;11.350;2023-06-24T02:05:18;20.20;78.40
47779;DHT22;33538;48.432;11.350;2023-06-24T02:07:47;20.20;78.60
47779;DHT22;33538;48.432;11.350;2023-06-24T02:10:16;20.20;78.60
47779;DHT22;33538;48.432;11.350;2023-06-24T02:12:45;20.20;78.50
47779;DHT22;33538;48.432;11.350;2023-06-24T02:15:14;20.10;78.10
47779;DHT22;33538;48.432;11.350;2023-06-24T02:17:41;20.20;78.30
47779;DHT22;33538;48.432;11.350;2023-06-24T02:20:09;20.10;78.30
47779;DHT22;33538;48.432;11.350;2023-06-24T02:22:38;20.10;78.10
47779;DHT22;33538;48.432;11.350;2023-06-24T02:25:07;20.10;78.20
47779;DHT22;33538;48.432;11.350;2023-06-24T02:27:35;20.10;78.40
47779;DHT22;33538;48.432;11.350;2023-06-24T02:30:03;20.10;78.40
47779;DHT22;33538;48.432;11.350;2023-06-24T02:32:31;20.10;78.60
47779;DHT22;33538;48.432;11.350;2023-06-24T02:34:58;20.00;78.60
47779;DHT22;33538;48.432;11.350;2023-06-24T02:37:25;20.10;78.60
47779;DHT22;33538;48.432;11.350;2023-06-24T02:39:53;20.10;78.40
47779;DHT22;33538;48.432;11.350;2023-06-24T02:42:20;20.00;78.50
47779;DHT22;33538;48.432;11.350;2023-06-24T02:44:47;20.00;78.40
47779;DHT22;33538;48.432;11.350;2023-06-24T02:47:14;20.00;78.40
47779;DHT22;33538;48.432;11.350;2023-06-24T02:49:44;20.10;78.50
47779;DHT22;33538;48.432;11.350;2023-06-24T02:52:12;20.00;78.30
47779;DHT22;33538;48.432;11.350;2023-06-24T02:54:40;20.00;78.30
47779;DHT22;33538;48.432;11.350;2023-06-24T02:57:09;20.00;78.20
47779;DHT22;33538;48.432;11.350;2023-06-24T02:59:36;19.90;78.00
47779;DHT22;33538;48.432;11.350;2023-06-24T03:02:04;20.00;78.10
47779;DHT22;33538;48.432;11.350;2023-06-24T03:04:31;19.90;78.20
47779;DHT22;33538;48.432;11.350;2023-06-24T03:06:58;19.90;78.10
47779;DHT22;33538;48.432;11.350;2023-06-24T03:09:26;19.90;78.10
47779;DHT22;33538;48.432;11.350;2023-06-24T03:11:53;19.90;78.40
47779;DHT22;33538;48.432;11.350;2023-06-24T03:14:21;19.90;78.40
47779;DHT22;33538;48.432;11.350;2023-06-24T03:16:48;19.90;78.40
47779;DHT22;33538;48.432;11.350;2023-06-24T03:19:14;19.90;78.40
47779;DHT22;33538;48.432;11.350;2023-06-24T03:21:41;19.90;78.40
47779;DHT22;33538;48.432;11.350;2023-06-24T03:24:08;19.90;78.30
47779;DHT22;33538;48.432;11.350;2023-06-24T03:26:36;19.90;78.30
47779;DHT22;33538;48.432;11.350;2023-06-24T03:29:03;19.90;78.40
47779;DHT22;33538;48.432;11.350;2023-06-24T03:31:31;19.90;78.70
47779;DHT22;33538;48.432;11.350;2023-06-24T03:33:58;19.90;78.70
47779;DHT22;33538;48.432;11.350;2023-06-24T03:36:25;19.90;79.20
47779;DHT22;33538;48.432;11.350;2023-06-24T03:38:52;19.80;79.40
47779;DHT22;33538;48.432;11.350;2023-06-24T03:41:19;19.80;79.70
47779;DHT22;33538;48.432;11.350;2023-06-24T03:43:46;19.80;78.90
47779;DHT22;33538;48.432;11.350;2023-06-24T03:46:13;19.80;78.80
47779;DHT22;33538;48.432;11.350;2023-06-24T03:48:42;19.80;79.10
47779;DHT22;33538;48.432;11.350;2023-06-24T03:51:09;19.80;79.40
47779;DHT22;33538;48.432;11.350;2023-06-24T03:53:36;19.80;79.30
47779;DHT22;33538;48.432;11.350;2023-06-24T03:56:03;19.80;79.30
47779;DHT22;33538;48.432;11.350;2023-06-24T03:58:30;19.80;79.00
47779;DHT22;33538;48.432;11.350;2023-06-24T04:00:58;19.80;78.90
47779;DHT22;33538;48.432;11.350;2023-06-24T04:03:25;19.80;79.10
47779;DHT22;33538;48.432;11.350;2023-06-24T04:05:55;19.80;78.90
47779;DHT22;33538;48.432;11.350;2023-06-24T04:08:22;19.80;78.90
47779;DHT22;33538;48.432;11.350;2023-06-24T04:10:49;19.80;78.40
47779;DHT22;33538;48.432;11.350;2023-06-24T04:13:15;19.80;78.40
47779;DHT22;33538;48.432;11.350;2023-06-24T04:15:42;19.80;78.80
47779;DHT22;33538;48.432;11.350;2023-06-24T04:18:09;19.70;79.10
47779;DHT22;33538;48.432;11.350;2023-06-24T04:20:36;19.80;79.60
47779;DHT22;33538;48.432;11.350;2023-06-24T04:23:05;19.80;80.30
47779;DHT22;33538;48.432;11.350;2023-06-24T04:25:32;19.70;80.40
47779;DHT22;33538;48.432;11.350;2023-06-24T04:27:59;19.70;80.70
47779;DHT22;33538;48.432;11.350;2023-06-24T04:30:26;19.70;81.00
47779;DHT22;33538;48.432;11.350;2023-06-24T04:32:53;19.80;81.00
47779;DHT22;33538;48.432;11.350;2023-06-24T04:35:20;19.70;80.80
47779;DHT22;33538;48.432;11.350;2023-06-24T04:37:46;19.70;80.60
47779;DHT22;33538;48.432;11.350;2023-06-24T04:40:16;19.80;80.30
47779;DHT22;33538;48.432;11.350;2023-06-24T04:42:43;19.70;80.20
47779;DHT22;33538;48.432;11.350;2023-06-24T04:45:10;19.70;80.20
47779;DHT22;33538;48.432;11.350;2023-06-24T04:47:37;19.70;80.20
47779;DHT22;33538;48.432;11.350;2023-06-24T04:50:04;19.70;80.10
47779;DHT22;33538;48.432;11.350;2023-06-24T04:52:31;19.70;80.20
47779;DHT22;33538;48.432;11.350;2023-06-24T04:54:58;19.80;80.50
47779;DHT22;33538;48.432;11.350;2023-06-24T04:57:27;19.70;80.70
47779;DHT22;33538;48.432;11.350;2023-06-24T04:59:54;19.70;81.00
47779;DHT22;33538;48.432;11.350;2023-06-24T05:02:21;19.80;81.30
47779;DHT22;33538;48.432;11.350;2023-06-24T05:04:48;19.70;80.90
47779;DHT22;33538;48.432;11.350;2023-06-24T05:07:16;19.70;80.70
47779;DHT22;33538;48.432;11.350;2023-06-24T05:09:45;19.70;80.50
47779;DHT22;33538;48.432;11.350;2023-06-24T05:12:11;19.70;80.40
47779;DHT22;33538;48.432;11.350;2023-06-24T05:14:40;19.70;80.30
47779;DHT22;33538;48.432;11.350;2023-06-24T05:17:07;19.70;80.10
47779;DHT22;33538;48.432;11.350;2023-06-24T05:19:33;19.70;79.90
47779;DHT22;33538;48.432;11.350;2023-06-24T05:22:00;19.70;80.20
47779;DHT22;33538;48.432;11.350;2023-06-24T05:24:27;19.80;80.40
47779;DHT22;33538;48.432;11.350;2023-06-24T05:26:54;19.80;81.10
47779;DHT22;33538;48.432;11.350;2023-06-24T05:29:20;19.80;81.10
47779;DHT22;33538;48.432;11.350;2023-06-24T05:31:49;19.80;80.80
47779;DHT22;33538;48.432;11.350;2023-06-24T05:34:16;19.70;81.20
47779;DHT22;33538;48.432;11.350;2023-06-24T05:36:42;19.70;81.50
47779;DHT22;33538;48.432;11.350;2023-06-24T05:39:09;19.70;81.40
47779;DHT22;33538;48.432;11.350;2023-06-24T05:41:36;19.70;81.30
47779;DHT22;33538;48.432;11.350;2023-06-24T05:44:04;19.70;81.20
47779;DHT22;33538;48.432;11.350;2023-06-24T05:46:31;19.70;81.30
47779;DHT22;33538;48.432;11.350;2023-06-24T05:48:59;19.70;81.20
47779;DHT22;33538;48.432;11.350;2023-06-24T05:51:26;19.70;81.70
47779;DHT22;33538;48.432;11.350;2023-06-24T05:53:53;19.70;81.50
47779;DHT22;33538;48.432;11.350;2023-06-24T05:56:21;19.80;81.60
47779;DHT22;33538;48.432;11.350;2023-06-24T05:58:48;19.70;81.70
47779;DHT22;33538;48.432;11.350;2023-06-24T06:01:15;19.80;81.80
47779;DHT22;33538;48.432;11.350;2023-06-24T06:03:41;19.80;81.80
47779;DHT22;33538;48.432;11.350;2023-06-24T06:06:10;19.80;81.70
47779;DHT22;33538;48.432;11.350;2023-06-24T06:08:36;19.80;82.00
47779;DHT22;33538;48.432;11.350;2023-06-24T06:11:03;19.80;82.00
47779;DHT22;33538;48.432;11.350;2023-06-24T06:13:30;19.80;82.30
47779;DHT22;33538;48.432;11.350;2023-06-24T06:15:57;19.80;82.60
47779;DHT22;33538;48.432;11.350;2023-06-24T06:18:24;19.80;82.60
47779;DHT22;33538;48.432;11.350;2023-06-24T06:20:51;19.80;83.00
47779;DHT22;33538;48.432;11.350;2023-06-24T06:23:19;19.80;82.90
47779;DHT22;33538;48.432;11.350;2023-06-24T06:25:46;19.80;82.70
47779;DHT22;33538;48.432;11.350;2023-06-24T06:28:15;19.90;82.60
47779;DHT22;33538;48.432;11.350;2023-06-24T06:30:42;19.90;82.70
47779;DHT22;33538;48.432;11.350;2023-06-24T06:33:08;19.90;82.10
47779;DHT22;33538;48.432;11.350;2023-06-24T06:35:35;19.90;81.90
47779;DHT22;33538;48.432;11.350;2023-06-24T06:38:02;19.90;81.80
47779;DHT22;33538;48.432;11.350;2023-06-24T06:40:31;20.00;82.10
47779;DHT22;33538;48.432;11.350;2023-06-24T06:42:57;20.00;81.90
47779;DHT22;33538;48.432;11.350;2023-06-24T06:45:24;20.00;81.60
47779;DHT22;33538;48.432;11.350;2023-06-24T06:47:51;20.10;81.40
47779;DHT22;33538;48.432;11.350;2023-06-24T06:50:18;20.10;81.30
47779;DHT22;33538;48.432;11.350;2023-06-24T06:52:45;20.10;81.20
47779;DHT22;33538;48.432;11.350;2023-06-24T06:55:11;20.10;80.80
47779;DHT22;33538;48.432;11.350;2023-06-24T06:57:40;20.20;80.70
47779;DHT22;33538;48.432;11.350;2023-06-24T07:00:08;20.20;80.30
47779;DHT22;33538;48.432;11.350;2023-06-24T07:02:35;20.20;79.90
47779;DHT22;33538;48.432;11.350;2023-06-24T07:05:02;20.20;79.50
47779;DHT22;33538;48.432;11.350;2023-06-24T07:07:29;20.20;79.40
47779;DHT22;33538;48.432;11.350;2023-06-24T07:09:55;20.30;79.10
47779;DHT22;33538;48.432;11.350;2023-06-24T07:12:22;20.30;78.70
47779;DHT22;33538;48.432;11.350;2023-06-24T07:14:51;20.30;78.10
47779;DHT22;33538;48.432;11.350;2023-06-24T07:17:18;20.40;78.00
47779;DHT22;33538;48.432;11.350;2023-06-24T07:19:45;20.40;77.90
47779;DHT22;33538;48.432;11.350;2023-06-24T07:22:11;20.40;77.60
47779;DHT22;33538;48.432;11.350;2023-06-24T07:24:38;20.40;77.40
47779;DHT22;33538;48.432;11.350;2023-06-24T07:27:06;20.40;77.00
47779;DHT22;33538;48.432;11.350;2023-06-24T07:29:32;20.50;76.90
47779;DHT22;33538;48.432;11.350;2023-06-24T07:32:01;20.50;76.80
47779;DHT22;33538;48.432;11.350;2023-06-24T07:34:29;20.50;76.60
47779;DHT22;33538;48.432;11.350;2023-06-24T07:36:56;20.50;76.60
47779;DHT22;33538;48.432;11.350;2023-06-24T07:39:24;20.50;76.30
47779;DHT22;33538;48.432;11.350;2023-06-24T07:41:51;20.50;76.20
47779;DHT22;33538;48.432;11.350;2023-06-24T07:44:17;20.60;76.20
47779;DHT22;33538;48.432;11.350;2023-06-24T07:46:44;20.60;76.10
47779;DHT22;33538;48.432;11.350;2023-06-24T07:49:13;20.60;76.10
47779;DHT22;33538;48.432;11.350;2023-06-24T07:51:39;20.60;76.00
47779;DHT22;33538;48.432;11.350;2023-06-24T07:54:06;20.60;76.00
47779;DHT22;33538;48.432;11.350;2023-06-24T07:56:33;20.70;75.90
47779;DHT22;33538;48.432;11.350;2023-06-24T07:59:00;20.70;75.80
47779;DHT22;33538;48.432;11.350;2023-06-24T08:01:26;20.70;75.70
47779;DHT22;33538;48.432;11.350;2023-06-24T08:03:53;20.70;75.70
47779;DHT22;33538;48.432;11.350;2023-06-24T08:06:22;20.70;75.90
47779;DHT22;33538;48.432;11.350;2023-06-24T08:08:49;20.70;75.90
47779;DHT22;33538;48.432;11.350;2023-06-24T08:11:15;20.70;76.00
47779;DHT22;33538;48.432;11.350;2023-06-24T08:13:42;20.70;76.20
47779;DHT22;33538;48.432;11.350;2023-06-24T08:16:09;20.80;76.30
47779;DHT22;33538;48.432;11.350;2023-06-24T08:18:36;20.80;76.50
47779;DHT22;33538;48.432;11.350;2023-06-24T08:21:03;20.70;76.40
47779;DHT22;33538;48.432;11.350;2023-06-24T08:23:31;20.80;76.50
47779;DHT22;33538;48.432;11.350;2023-06-24T08:25:58;20.70;76.40
47779;DHT22;33538;48.432;11.350;2023-06-24T08:28:42;20.80;76.50
47779;DHT22;33538;48.432;11.350;2023-06-24T08:31:09;20.80;76.40
47779;DHT22;33538;48.432;11.350;2023-06-24T08:33:37;20.80;76.50
47779;DHT22;33538;48.432;11.350;2023-06-24T08:36:04;20.80;76.30
47779;DHT22;33538;48.432;11.350;2023-06-24T08:38:32;20.80;76.40
47779;DHT22;33538;48.432;11.350;2023-06-24T08:40:59;20.80;76.30
47779;DHT22;33538;48.432;11.350;2023-06-24T08:43:26;20.80;76.40
47779;DHT22;33538;48.432;11.350;2023-06-24T08:45:53;20.80;76.40
47779;DHT22;33538;48.432;11.350;2023-06-24T08:48:20;20.90;76.30
47779;DHT22;33538;48.432;11.350;2023-06-24T08:50:51;20.90;76.20
47779;DHT22;33538;48.432;11.350;2023-06-24T08:53:20;20.90;76.10
47779;DHT22;33538;48.432;11.350;2023-06-24T08:55:49;20.90;76.00
47779;DHT22;33538;48.432;11.350;2023-06-24T08:58:18;21.00;75.90
47779;DHT22;33538;48.432;11.350;2023-06-24T09:00:45;21.00;75.70
47779;DHT22;33538;48.432;11.350;2023-06-24T09:03:12;21.00;75.80
47779;DHT22;33538;48.432;11.350;2023-06-24T09:05:39;21.00;75.80
47779;DHT22;33538;48.432;11.350;2023-06-24T09:08:06;21.00;75.80
47779;DHT22;33538;48.432;11.350;2023-06-24T09:10:35;21.10;75.80
47779;DHT22;33538;48.432;11.350;2023-06-24T09:13:05;21.10;75.80
47779;DHT22;33538;48.432;11.350;2023-06-24T09:15:33;21.10;75.90
47779;DHT22;33538;48.432;11.350;2023-06-24T09:18:00;21.10;76.00
47779;DHT22;33538;48.432;11.350;2023-06-24T09:20:28;21.10;76.10
47779;DHT22;33538;48.432;11.350;2023-06-24T09:22:58;21.10;76.10
47779;DHT22;33538;48.432;11.350;2023-06-24T09:25:25;21.10;76.20
47779;DHT22;33538;48.432;11.350;2023-06-24T09:27:52;21.10;76.20
47779;DHT22;33538;48.432;11.350;2023-06-24T09:30:21;21.10;76.10
47779;DHT22;33538;48.432;11.350;2023-06-24T09:32:49;21.20;76.20
47779;DHT22;33538;48.432;11.350;2023-06-24T09:35:19;21.20;76.10
47779;DHT22;33538;48.432;11.350;2023-06-24T09:37:49;21.20;76.00
47779;DHT22;33538;48.432;11.350;2023-06-24T09:40:16;21.20;76.00
47779;DHT22;33538;48.432;11.350;2023-06-24T09:42:49;21.30;76.10
47779;DHT22;33538;48.432;11.350;2023-06-24T09:45:22;21.30;76.20
47779;DHT22;33538;48.432;11.350;2023-06-24T09:47:49;21.30;76.10
47779;DHT22;33538;48.432;11.350;2023-06-24T09:50:15;21.30;76.10
47779;DHT22;33538;48.432;11.350;2023-06-24T09:52:44;21.30;76.10
47779;DHT22;33538;48.432;11.350;2023-06-24T09:55:13;21.30;76.10
47779;DHT22;33538;48.432;11.350;2023-06-24T09:57:41;21.30;76.10
47779;DHT22;33538;48.432;11.350;2023-06-24T10:00:10;21.40;76.20
47779;DHT22;33538;48.432;11.350;2023-06-24T10:02:38;21.50;68.70
47779;DHT22;33538;48.432;11.350;2023-06-24T10:05:06;21.70;71.00
47779;DHT22;33538;48.432;11.350;2023-06-24T10:07:34;21.60;72.60
47779;DHT22;33538;48.432;11.350;2023-06-24T10:10:02;21.60;73.50
47779;DHT22;33538;48.432;11.350;2023-06-24T10:12:29;21.50;74.10
47779;DHT22;33538;48.432;11.350;2023-06-24T10:14:56;21.50;74.40
47779;DHT22;33538;48.432;11.350;2023-06-24T10:17:23;21.50;74.50
47779;DHT22;33538;48.432;11.350;2023-06-24T10:19:52;21.50;74.50
47779;DHT22;33538;48.432;11.350;2023-06-24T10:22:21;21.50;74.40
47779;DHT22;33538;48.432;11.350;2023-06-24T10:24:49;21.50;74.50
47779;DHT22;33538;48.432;11.350;2023-06-24T10:27:18;21.50;74.50
47779;DHT22;33538;48.432;11.350;2023-06-24T10:29:46;21.60;74.60
47779;DHT22;33538;48.432;11.350;2023-06-24T10:32:13;21.60;74.40
47779;DHT22;33538;48.432;11.350;2023-06-24T10:34:41;21.60;74.00
47779;DHT22;33538;48.432;11.350;2023-06-24T10:37:12;21.60;74.10
47779;DHT22;33538;48.432;11.350;2023-06-24T10:39:50;21.70;74.10
47779;DHT22;33538;48.432;11.350;2023-06-24T10:42:28;21.70;74.10
47779;DHT22;33538;48.432;11.350;2023-06-24T10:44:56;21.70;74.20
47779;DHT22;33538;48.432;11.350;2023-06-24T10:47:24;21.70;74.30
47779;DHT22;33538;48.432;11.350;2023-06-24T10:49:51;21.70;74.40
47779;DHT22;33538;48.432;11.350;2023-06-24T10:52:21;21.70;74.50
47779;DHT22;33538;48.432;11.350;2023-06-24T10:54:49;21.80;74.60
47779;DHT22;33538;48.432;11.350;2023-06-24T10:57:20;21.70;74.70
47779;DHT22;33538;48.432;11.350;2023-06-24T10:59:47;21.80;74.80
47779;DHT22;33538;48.432;11.350;2023-06-24T11:02:15;21.80;68.90
47779;DHT22;33538;48.432;11.350;2023-06-24T11:04:43;22.00;69.10
47779;DHT22;33538;48.432;11.350;2023-06-24T11:07:10;22.00;70.80
47779;DHT22;33538;48.432;11.350;2023-06-24T11:09:40;21.90;71.80
47779;DHT22;33538;48.432;11.350;2023-06-24T11:12:09;21.90;72.30
47779;DHT22;33538;48.432;11.350;2023-06-24T11:14:37;21.90;72.60
47779;DHT22;33538;48.432;11.350;2023-06-24T11:17:04;21.90;72.90
47779;DHT22;33538;48.432;11.350;2023-06-24T11:19:31;21.90;73.10
47779;DHT22;33538;48.432;11.350;2023-06-24T11:22:02;21.90;73.40
47779;DHT22;33538;48.432;11.350;2023-06-24T11:24:29;21.90;73.60
47779;DHT22;33538;48.432;11.350;2023-06-24T11:26:57;22.00;73.80
47779;DHT22;33538;48.432;11.350;2023-06-24T11:29:24;22.00;74.00
47779;DHT22;33538;48.432;11.350;2023-06-24T11:31:54;22.00;74.20
47779;DHT22;33538;48.432;11.350;2023-06-24T11:34:21;22.00;74.30
47779;DHT22;33538;48.432;11.350;2023-06-24T11:36:48;22.00;74.50
47779;DHT22;33538;48.432;11.350;2023-06-24T11:39:22;22.10;74.60
47779;DHT22;33538;48.432;11.350;2023-06-24T11:41:50;22.00;74.70
47779;DHT22;33538;48.432;11.350;2023-06-24T11:44:20;22.10;74.90
47779;DHT22;33538;48.432;11.350;2023-06-24T11:46:47;22.10;74.90
47779;DHT22;33538;48.432;11.350;2023-06-24T11:49:14;22.10;75.00
47779;DHT22;33538;48.432;11.350;2023-06-24T11:51:46;22.10;75.10
47779;DHT22;33538;48.432;11.350;2023-06-24T11:54:14;22.10;75.10
47779;DHT22;33538;48.432;11.350;2023-06-24T11:56:42;22.10;75.10
47779;DHT22;33538;48.432;11.350;2023-06-24T11:59:16;22.10;75.10
47779;DHT22;33538;48.432;11.350;2023-06-24T12:01:44;22.20;75.10
47779;DHT22;33538;48.432;11.350;2023-06-24T12:04:11;22.20;75.10
47779;DHT22;33538;48.432;11.350;2023-06-24T12:06:38;22.20;75.10
47779;DHT22;33538;48.432;11.350;2023-06-24T12:09:05;22.20;75.00
47779;DHT22;33538;48.432;11.350;2023-06-24T12:11:36;22.20;75.50
47779;DHT22;33538;48.432;11.350;2023-06-24T12:14:04;22.20;75.10
47779;DHT22;33538;48.432;11.350;2023-06-24T12:16:31;22.20;75.00
47779;DHT22;33538;48.432;11.350;2023-06-24T12:19:00;22.30;75.00
47779;DHT22;33538;48.432;11.350;2023-06-24T12:21:26;22.30;73.60
47779;DHT22;33538;48.432;11.350;2023-06-24T12:23:53;22.40;73.60
47779;DHT22;33538;48.432;11.350;2023-06-24T12:26:21;22.40;73.90
47779;DHT22;33538;48.432;11.350;2023-06-24T12:28:47;22.40;73.10
47779;DHT22;33538;48.432;11.350;2023-06-24T12:31:14;22.40;73.50
47779;DHT22;33538;48.432;11.350;2023-06-24T12:33:41;22.40;73.80
47779;DHT22;33538;48.432;11.350;2023-06-24T12:36:09;22.40;73.80
47779;DHT22;33538;48.432;11.350;2023-06-24T12:38:37;22.30;73.90
47779;DHT22;33538;48.432;11.350;2023-06-24T12:41:04;22.40;74.00
47779;DHT22;33538;48.432;11.350;2023-06-24T12:43:31;22.30;73.90
47779;DHT22;33538;48.432;11.350;2023-06-24T12:45:59;22.40;74.00
47779;DHT22;33538;48.432;11.350;2023-06-24T12:48:26;22.40;74.00
47779;DHT22;33538;48.432;11.350;2023-06-24T12:50:53;22.40;73.90
47779;DHT22;33538;48.432;11.350;2023-06-24T12:53:22;22.40;73.70
47779;DHT22;33538;48.432;11.350;2023-06-24T12:55:49;22.40;73.80
47779;DHT22;33538;48.432;11.350;2023-06-24T12:58:19;22.40;73.80
47779;DHT22;33538;48.432;11.350;2023-06-24T13:00:46;22.40;73.90
47779;DHT22;33538;48.432;11.350;2023-06-24T13:03:13;22.50;73.90
47779;DHT22;33538;48.432;11.350;2023-06-24T13:05:40;22.50;73.80
47779;DHT22;33538;48.432;11.350;2023-06-24T13:08:06;22.50;73.80
47779;DHT22;33538;48.432;11.350;2023-06-24T13:10:34;22.50;73.90
47779;DHT22;33538;48.432;11.350;2023-06-24T13:13:02;22.50;73.80
47779;DHT22;33538;48.432;11.350;2023-06-24T13:15:28;22.60;73.30
47779;DHT22;33538;48.432;11.350;2023-06-24T13:17:55;22.50;73.30
47779;DHT22;33538;48.432;11.350;2023-06-24T13:20:22;22.60;73.10
47779;DHT22;33538;48.432;11.350;2023-06-24T13:22:49;22.60;73.10
47779;DHT22;33538;48.432;11.350;2023-06-24T13:25:16;22.60;73.10
47779;DHT22;33538;48.432;11.350;2023-06-24T13:27:45;22.60;73.00
47779;DHT22;33538;48.432;11.350;2023-06-24T13:30:13;22.60;72.90
47779;DHT22;33538;48.432;11.350;2023-06-24T13:32:40;22.60;72.90
47779;DHT22;33538;48.432;11.350;2023-06-24T13:35:07;22.60;72.70
47779;DHT22;33538;48.432;11.350;2023-06-24T13:37:34;22.70;72.80
47779;DHT22;33538;48.432;11.350;2023-06-24T13:40:01;22.60;72.90
47779;DHT22;33538;48.432;11.350;2023-06-24T13:42:28;22.70;72.90
47779;DHT22;33538;48.432;11.350;2023-06-24T13:44:58;22.70;72.80
47779;DHT22;33538;48.432;11.350;2023-06-24T13:47:25;22.70;72.70
47779;DHT22;33538;48.432;11.350;2023-06-24T13:49:53;22.70;72.60
47779;DHT22;33538;48.432;11.350;2023-06-24T13:52:20;22.70;72.80
47779;DHT22;33538;48.432;11.350;2023-06-24T13:54:47;22.70;72.80
47779;DHT22;33538;48.432;11.350;2023-06-24T13:57:14;22.80;69.70
47779;DHT22;33538;48.432;11.350;2023-06-24T13:59:40;22.80;70.50
47779;DHT22;33538;48.432;11.350;2023-06-24T14:02:09;22.80;71.00
47779;DHT22;33538;48.432;11.350;2023-06-24T14:04:36;22.90;71.20
47779;DHT22;33538;48.432;11.350;2023-06-24T14:07:03;22.90;70.20
47779;DHT22;33538;48.432;11.350;2023-06-24T14:09:30;22.90;70.60
47779;DHT22;33538;48.432;11.350;2023-06-24T14:11:57;22.90;70.90
47779;DHT22;33538;48.432;11.350;2023-06-24T14:14:28;22.90;71.10
47779;DHT22;33538;48.432;11.350;2023-06-24T14:16:55;22.90;71.10
47779;DHT22;33538;48.432;11.350;2023-06-24T14:19:23;23.00;71.10
47779;DHT22;33538;48.432;11.350;2023-06-24T14:21:52;22.90;70.90
47779;DHT22;33538;48.432;11.350;2023-06-24T14:24:19;22.90;70.40
47779;DHT22;33538;48.432;11.350;2023-06-24T14:26:45;23.00;69.30
47779;DHT22;33538;48.432;11.350;2023-06-24T14:29:12;23.20;67.80
47779;DHT22;33538;48.432;11.350;2023-06-24T14:31:39;23.10;68.60
47779;DHT22;33538;48.432;11.350;2023-06-24T14:34:06;23.10;69.10
47779;DHT22;33538;48.432;11.350;2023-06-24T14:36:37;23.10;68.70
47779;DHT22;33538;48.432;11.350;2023-06-24T14:39:04;23.10;68.90
47779;DHT22;33538;48.432;11.350;2023-06-24T14:41:31;23.10;69.50
47779;DHT22;33538;48.432;11.350;2023-06-24T14:43:58;23.10;69.00
47779;DHT22;33538;48.432;11.350;2023-06-24T14:46:24;23.20;69.10
47779;DHT22;33538;48.432;11.350;2023-06-24T14:48:51;23.20;69.00
47779;DHT22;33538;48.432;11.350;2023-06-24T14:51:18;23.20;69.00
47779;DHT22;33538;48.432;11.350;2023-06-24T14:53:46;23.20;69.00
47779;DHT22;33538;48.432;11.350;2023-06-24T14:56:14;23.20;68.90
47779;DHT22;33538;48.432;11.350;2023-06-24T14:58:41;23.20;68.80
47779;DHT22;33538;48.432;11.350;2023-06-24T15:01:07;23.30;68.90
47779;DHT22;33538;48.432;11.350;2023-06-24T15:03:34;23.30;68.70
47779;DHT22;33538;48.432;11.350;2023-06-24T15:06:01;23.30;68.50
47779;DHT22;33538;48.432;11.350;2023-06-24T15:08:29;23.30;68.30
47779;DHT22;33538;48.432;11.350;2023-06-24T15:10:57;23.40;68.20
47779;DHT22;33538;48.432;11.350;2023-06-24T15:13:24;23.40;68.00
47779;DHT22;33538;48.432;11.350;2023-06-24T15:15:51;23.40;67.90
47779;DHT22;33538;48.432;11.350;2023-06-24T15:18:18;23.40;67.50